sensor_id;sensor_type;location;lat;lon;timestamp;pressure;altitude;pressure_sealevel;temperature;humidity
11212;BME280;5663;50.864;12.096;2022-10-16T00:02:30;99105.88;;;17.60;82.19
11212;BME280;5663;50.864;12.096;2022-10-16T00:05:02;99107.38;;;17.62;82.01
11212;BME280;5663;50.864;12.096;2022-10-16T00:07:33;99103.09;;;17.61;81.98
11212;BME280;5663;50.864;12.096;2022-10-16T00:10:05;99105.22;;;17.67;82.00
11212;BME280;5663;50.864;12.096;2022-10-16T00:12:33;99085.47;;;17.52;81.94
11212;BME280;5663;50.864;12.096;2022-10-16T00:15:01;99114.63;;;17.70;81.83
11212;BME280;5663;50.864;12.096;2022-10-16T00:17:30;99105.91;;;17.69;81.97
11212;BME280;5663;50.864;12.096;2022-10-16T00:19:58;99103.28;;;17.69;82.04
11212;BME280;5663;50.864;12.096;2022-10-16T00:22:26;99104.00;;;17.71;81.99
11212;BME280;5663;50.864;12.096;2022-10-16T00:24:53;99106.50;;;17.73;81.72
11212;BME280;5663;50.864;12.096;2022-10-16T00:27:21;99106.38;;;17.75;81.82
11212;BME280;5663;50.864;12.096;2022-10-16T00:29:50;99108.28;;;17.72;81.65
11212;BME280;5663;50.864;12.096;2022-10-16T00:32:17;99101.63;;;17.68;81.38
11212;BME280;5663;50.864;12.096;2022-10-16T00:34:46;99108.28;;;17.72;81.25
11212;BME280;5663;50.864;12.096;2022-10-16T00:37:14;99118.25;;;17.69;81.06
11212;BME280;5663;50.864;12.096;2022-10-16T00:39:41;99115.03;;;17.65;81.15
11212;BME280;5663;50.864;12.096;2022-10-16T00:42:11;99112.66;;;17.62;81.19
11212;BME280;5663;50.864;12.096;2022-10-16T00:44:45;99105.97;;;17.58;81.41
11212;BME280;5663;50.864;12.096;2022-10-16T00:47:17;99103.59;;;17.55;81.56
11212;BME280;5663;50.864;12.096;2022-10-16T00:49:50;99097.78;;;17.52;81.17
11212;BME280;5663;50.864;12.096;2022-10-16T00:52:19;99105.09;;;17.48;81.27
11212;BME280;5663;50.864;12.096;2022-10-16T00:54:49;99094.59;;;17.48;81.16
11212;BME280;5663;50.864;12.096;2022-10-16T00:57:17;99097.59;;;17.43;81.28
11212;BME280;5663;50.864;12.096;2022-10-16T00:59:45;99080.09;;;17.33;81.37
11212;BME280;5663;50.864;12.096;2022-10-16T01:02:15;99070.59;;;17.20;81.68
11212;BME280;5663;50.864;12.096;2022-10-16T01:04:48;99087.25;;;17.31;81.63
11212;BME280;5663;50.864;12.096;2022-10-16T01:07:29;99106.38;;;17.33;81.39
11212;BME280;5663;50.864;12.096;2022-10-16T01:10:07;99113.81;;;17.28;81.17
11212;BME280;5663;50.864;12.096;2022-10-16T01:12:41;99110.47;;;17.26;81.08
11212;BME280;5663;50.864;12.096;2022-10-16T01:15:16;99095.97;;;17.10;81.08
11212;BME280;5663;50.864;12.096;2022-10-16T01:17:49;99119.56;;;17.21;81.05
11212;BME280;5663;50.864;12.096;2022-10-16T01:20:26;99125.91;;;17.19;81.23
11212;BME280;5663;50.864;12.096;2022-10-16T01:23:17;99126.19;;;17.16;81.02
11212;BME280;5663;50.864;12.096;2022-10-16T01:28:52;99123.34;;;17.08;81.80
11212;BME280;5663;50.864;12.096;2022-10-16T01:31:24;99122.63;;;17.06;81.86
11212;BME280;5663;50.864;12.096;2022-10-16T01:33:58;99123.44;;;17.06;82.47
11212;BME280;5663;50.864;12.096;2022-10-16T01:36:34;99120.81;;;17.06;82.88
11212;BME280;5663;50.864;12.096;2022-10-16T01:39:06;99133.00;;;17.07;82.69
11212;BME280;5663;50.864;12.096;2022-10-16T01:41:39;99130.38;;;17.07;82.83
11212;BME280;5663;50.864;12.096;2022-10-16T01:44:12;99127.75;;;17.07;83.41
11212;BME280;5663;50.864;12.096;2022-10-16T01:46:46;99126.81;;;17.08;83.52
11212;BME280;5663;50.864;12.096;2022-10-16T01:49:14;99138.25;;;17.07;83.72
11212;BME280;5663;50.864;12.096;2022-10-16T01:51:45;99128.59;;;17.08;83.78
11212;BME280;5663;50.864;12.096;2022-10-16T01:54:17;99121.66;;;17.07;83.58
11212;BME280;5663;50.864;12.096;2022-10-16T01:56:48;99118.34;;;17.05;83.29
11212;BME280;5663;50.864;12.096;2022-10-16T01:59:21;99130.63;;;17.04;83.24
11212;BME280;5663;50.864;12.096;2022-10-16T02:01:55;99128.25;;;17.01;83.26
11212;BME280;5663;50.864;12.096;2022-10-16T02:04:29;99117.63;;;16.91;83.22
11212;BME280;5663;50.864;12.096;2022-10-16T02:06:58;99126.59;;;17.00;83.11
11212;BME280;5663;50.864;12.096;2022-10-16T02:09:26;99128.25;;;17.01;83.17
11212;BME280;5663;50.864;12.096;2022-10-16T02:11:57;99124.91;;;16.99;83.44
11212;BME280;5663;50.864;12.096;2022-10-16T02:14:27;99128.50;;;16.98;83.44
11212;BME280;5663;50.864;12.096;2022-10-16T02:16:55;99126.84;;;16.97;83.48
11212;BME280;5663;50.864;12.096;2022-10-16T02:19:23;99134.00;;;16.95;83.39
11212;BME280;5663;50.864;12.096;2022-10-16T02:21:54;99136.75;;;16.93;83.35
11212;BME280;5663;50.864;12.096;2022-10-16T02:24:28;99139.50;;;16.92;83.12
11212;BME280;5663;50.864;12.096;2022-10-16T02:27:05;99114.72;;;16.73;83.07
11212;BME280;5663;50.864;12.096;2022-10-16T02:29:40;99146.91;;;16.87;83.26
11212;BME280;5663;50.864;12.096;2022-10-16T02:32:12;99149.81;;;16.84;83.31
11212;BME280;5663;50.864;12.096;2022-10-16T02:34:43;99159.59;;;16.82;83.11
11212;BME280;5663;50.864;12.096;2022-10-16T02:37:12;99156.00;;;16.83;83.25
11212;BME280;5663;50.864;12.096;2022-10-16T02:39:41;99146.59;;;16.80;83.07
11212;BME280;5663;50.864;12.096;2022-10-16T02:42:10;99149.09;;;16.82;82.84
11212;BME280;5663;50.864;12.096;2022-10-16T02:44:39;99157.94;;;16.81;82.93
11212;BME280;5663;50.864;12.096;2022-10-16T02:47:07;99151.00;;;16.80;82.86
11212;BME280;5663;50.864;12.096;2022-10-16T02:49:35;99147.66;;;16.78;82.65
11212;BME280;5663;50.864;12.096;2022-10-16T02:52:03;99155.69;;;16.76;82.64
11212;BME280;5663;50.864;12.096;2022-10-16T02:54:31;99160.31;;;16.72;82.45
11212;BME280;5663;50.864;12.096;2022-10-16T02:56:58;99154.22;;;16.72;82.34
11212;BME280;5663;50.864;12.096;2022-10-16T02:59:26;99146.44;;;16.70;82.28
11212;BME280;5663;50.864;12.096;2022-10-16T03:01:55;99146.69;;;16.67;82.06
11212;BME280;5663;50.864;12.096;2022-10-16T03:04:23;99159.13;;;16.65;82.23
11212;BME280;5663;50.864;12.096;2022-10-16T03:06:51;99152.19;;;16.64;82.09
11212;BME280;5663;50.864;12.096;2022-10-16T03:09:18;99157.69;;;16.61;81.96
11212;BME280;5663;50.864;12.096;2022-10-16T03:11:46;99159.59;;;16.59;81.80
11212;BME280;5663;50.864;12.096;2022-10-16T03:14:13;99159.84;;;16.56;81.74
11212;BME280;5663;50.864;12.096;2022-10-16T03:16:41;99165.34;;;16.53;82.11
11212;BME280;5663;50.864;12.096;2022-10-16T03:19:10;99164.59;;;16.51;82.05
11212;BME280;5663;50.864;12.096;2022-10-16T03:21:38;99170.81;;;16.50;82.21
11212;BME280;5663;50.864;12.096;2022-10-16T03:24:06;99155.31;;;16.47;82.01
11212;BME280;5663;50.864;12.096;2022-10-16T03:26:34;99135.28;;;16.35;82.38
11212;BME280;5663;50.864;12.096;2022-10-16T03:29:02;99126.19;;;16.39;82.39
11212;BME280;5663;50.864;12.096;2022-10-16T03:31:30;99138.41;;;16.40;82.30
11212;BME280;5663;50.864;12.096;2022-10-16T03:33:58;99152.44;;;16.39;82.28
11212;BME280;5663;50.864;12.096;2022-10-16T03:36:27;99154.38;;;16.37;82.47
11212;BME280;5663;50.864;12.096;2022-10-16T03:38:54;99161.28;;;16.38;82.52
11212;BME280;5663;50.864;12.096;2022-10-16T03:41:22;99131.72;;;16.13;82.32
11212;BME280;5663;50.864;12.096;2022-10-16T03:43:50;99159.63;;;16.37;82.54
11212;BME280;5663;50.864;12.096;2022-10-16T03:46:18;99165.72;;;16.37;82.78
11212;BME280;5663;50.864;12.096;2022-10-16T03:48:45;99165.72;;;16.37;82.96
11212;BME280;5663;50.864;12.096;2022-10-16T03:51:13;99151.63;;;16.38;83.34
11212;BME280;5663;50.864;12.096;2022-10-16T03:53:43;99151.63;;;16.38;83.60
11212;BME280;5663;50.864;12.096;2022-10-16T03:56:10;99150.78;;;16.38;83.34
11212;BME280;5663;50.864;12.096;2022-10-16T03:58:38;99146.72;;;16.34;83.44
11212;BME280;5663;50.864;12.096;2022-10-16T04:01:06;99155.56;;;16.33;83.52
11212;BME280;5663;50.864;12.096;2022-10-16T04:03:34;99164.03;;;16.36;83.73
11212;BME280;5663;50.864;12.096;2022-10-16T04:06:02;99133.75;;;16.21;84.16
11212;BME280;5663;50.864;12.096;2022-10-16T04:08:29;99156.75;;;16.29;84.43
11212;BME280;5663;50.864;12.096;2022-10-16T04:11:02;99158.44;;;16.30;84.47
11212;BME280;5663;50.864;12.096;2022-10-16T04:13:30;99141.16;;;16.16;84.63
11212;BME280;5663;50.864;12.096;2022-10-16T04:15:57;99169.75;;;16.30;84.59
11212;BME280;5663;50.864;12.096;2022-10-16T04:18:25;99177.75;;;16.29;84.42
11212;BME280;5663;50.864;12.096;2022-10-16T04:20:54;99176.06;;;16.27;84.10
11212;BME280;5663;50.864;12.096;2022-10-16T04:23:22;99152.31;;;16.07;84.05
11212;BME280;5663;50.864;12.096;2022-10-16T04:25:50;99166.28;;;16.18;84.25
11212;BME280;5663;50.864;12.096;2022-10-16T04:28:20;99187.06;;;16.21;84.18
11212;BME280;5663;50.864;12.096;2022-10-16T04:30:47;99186.31;;;16.19;83.90
11212;BME280;5663;50.864;12.096;2022-10-16T04:33:15;99194.44;;;16.16;84.12
11212;BME280;5663;50.864;12.096;2022-10-16T04:35:42;99188.47;;;16.14;84.08
11212;BME280;5663;50.864;12.096;2022-10-16T04:38:10;99189.66;;;16.10;83.83
11212;BME280;5663;50.864;12.096;2022-10-16T04:40:38;99167.47;;;15.92;83.50
11212;BME280;5663;50.864;12.096;2022-10-16T04:43:05;99195.13;;;16.07;83.26
11212;BME280;5663;50.864;12.096;2022-10-16T04:45:34;99210.16;;;16.05;82.94
11212;BME280;5663;50.864;12.096;2022-10-16T04:48:03;99180.91;;;15.87;82.39
11212;BME280;5663;50.864;12.096;2022-10-16T04:50:30;99196.44;;;16.01;82.04
11212;BME280;5663;50.864;12.096;2022-10-16T04:52:58;99199.06;;;15.90;81.76
11212;BME280;5663;50.864;12.096;2022-10-16T04:55:26;99222.31;;;15.95;81.94
11212;BME280;5663;50.864;12.096;2022-10-16T04:57:53;99233.03;;;15.92;81.95
11212;BME280;5663;50.864;12.096;2022-10-16T05:00:21;99243.75;;;15.89;81.87
11212;BME280;5663;50.864;12.096;2022-10-16T05:02:51;99251.13;;;15.84;81.72
11212;BME280;5663;50.864;12.096;2022-10-16T05:05:18;99239.66;;;15.73;81.58
11212;BME280;5663;50.864;12.096;2022-10-16T05:07:47;99246.13;;;15.81;81.78
11212;BME280;5663;50.864;12.096;2022-10-16T05:10:15;99240.03;;;15.80;82.10
11212;BME280;5663;50.864;12.096;2022-10-16T05:12:43;99243.59;;;15.79;82.17
11212;BME280;5663;50.864;12.096;2022-10-16T05:15:12;99248.00;;;15.79;82.20
11212;BME280;5663;50.864;12.096;2022-10-16T05:17:39;99248.00;;;15.79;82.51
11212;BME280;5663;50.864;12.096;2022-10-16T05:20:09;99243.72;;;15.77;82.89
11212;BME280;5663;50.864;12.096;2022-10-16T05:22:37;99244.69;;;15.76;83.17
11212;BME280;5663;50.864;12.096;2022-10-16T05:25:05;99235.38;;;15.72;83.40
11212;BME280;5663;50.864;12.096;2022-10-16T05:27:33;99248.22;;;15.75;83.43
11212;BME280;5663;50.864;12.096;2022-10-16T05:30:04;99246.13;;;15.81;83.50
11212;BME280;5663;50.864;12.096;2022-10-16T05:32:32;99250.41;;;15.82;83.58
11212;BME280;5663;50.864;12.096;2022-10-16T05:35:01;99168.22;;;15.35;83.83
11212;BME280;5663;50.864;12.096;2022-10-16T05:37:30;99240.28;;;15.77;84.18
11212;BME280;5663;50.864;12.096;2022-10-16T05:39:57;99250.66;;;15.90;84.13
11212;BME280;5663;50.864;12.096;2022-10-16T05:42:25;99257.34;;;15.94;84.35
11212;BME280;5663;50.864;12.096;2022-10-16T05:44:53;99255.69;;;15.93;84.29
11212;BME280;5663;50.864;12.096;2022-10-16T05:47:20;99265.72;;;15.99;84.44
11212;BME280;5663;50.864;12.096;2022-10-16T05:49:48;99259.28;;;16.03;84.59
11212;BME280;5663;50.864;12.096;2022-10-16T05:52:16;99267.66;;;16.08;84.83
11212;BME280;5663;50.864;12.096;2022-10-16T05:54:45;99272.66;;;16.11;85.03
11212;BME280;5663;50.864;12.096;2022-10-16T05:57:13;99260.97;;;16.15;85.13
11212;BME280;5663;50.864;12.096;2022-10-16T05:59:41;99278.16;;;16.19;85.22
11212;BME280;5663;50.864;12.096;2022-10-16T06:02:12;99278.06;;;16.21;85.56
11212;BME280;5663;50.864;12.096;2022-10-16T06:04:40;99277.72;;;16.25;85.60
11212;BME280;5663;50.864;12.096;2022-10-16T06:07:08;99272.09;;;16.30;85.63
11212;BME280;5663;50.864;12.096;2022-10-16T06:09:36;99282.25;;;16.35;85.84
11212;BME280;5663;50.864;12.096;2022-10-16T06:12:06;99283.09;;;16.35;85.97
11212;BME280;5663;50.864;12.096;2022-10-16T06:14:33;99288.72;;;16.42;86.12
11212;BME280;5663;50.864;12.096;2022-10-16T06:17:02;99297.06;;;16.47;86.16
11212;BME280;5663;50.864;12.096;2022-10-16T06:19:30;99298.50;;;16.51;86.07
11212;BME280;5663;50.864;12.096;2022-10-16T06:21:57;99298.28;;;16.54;86.13
11212;BME280;5663;50.864;12.096;2022-10-16T06:24:25;99294.22;;;16.61;86.25
11212;BME280;5663;50.864;12.096;2022-10-16T06:26:54;99296.50;;;16.66;86.42
11212;BME280;5663;50.864;12.096;2022-10-16T06:29:23;99310.09;;;16.71;86.34
11212;BME280;5663;50.864;12.096;2022-10-16T06:31:51;99314.19;;;16.75;86.35
11212;BME280;5663;50.864;12.096;2022-10-16T06:34:19;99305.09;;;16.68;86.06
11212;BME280;5663;50.864;12.096;2022-10-16T06:36:47;99329.13;;;16.86;86.45
11212;BME280;5663;50.864;12.096;2022-10-16T06:39:15;99334.84;;;16.91;86.46
11212;BME280;5663;50.864;12.096;2022-10-16T06:41:43;99334.50;;;16.95;86.72
11212;BME280;5663;50.864;12.096;2022-10-16T06:44:11;99333.19;;;17.01;86.86
11212;BME280;5663;50.864;12.096;2022-10-16T06:46:40;99330.19;;;17.06;87.16
11212;BME280;5663;50.864;12.096;2022-10-16T06:49:08;99340.25;;;17.12;87.39
11212;BME280;5663;50.864;12.096;2022-10-16T06:51:36;99344.16;;;17.17;87.54
11212;BME280;5663;50.864;12.096;2022-10-16T06:54:06;99335.56;;;17.15;87.71
11212;BME280;5663;50.864;12.096;2022-10-16T06:56:35;99348.69;;;17.27;87.78
11212;BME280;5663;50.864;12.096;2022-10-16T06:59:03;99335.91;;;17.22;87.92
11212;BME280;5663;50.864;12.096;2022-10-16T07:01:32;99330.19;;;17.28;88.17
11212;BME280;5663;50.864;12.096;2022-10-16T07:04:03;99346.28;;;17.35;88.55
11212;BME280;5663;50.864;12.096;2022-10-16T07:06:33;99341.75;;;17.37;88.53
11212;BME280;5663;50.864;12.096;2022-10-16T07:09:05;99344.63;;;17.45;88.58
11212;BME280;5663;50.864;12.096;2022-10-16T07:11:33;99351.16;;;17.51;88.67
11212;BME280;5663;50.864;12.096;2022-10-16T07:14:02;99343.63;;;17.57;88.78
11212;BME280;5663;50.864;12.096;2022-10-16T07:16:31;99339.66;;;17.63;88.94
11212;BME280;5663;50.864;12.096;2022-10-16T07:19:02;99336.41;;;17.70;89.13
11212;BME280;5663;50.864;12.096;2022-10-16T07:21:32;99349.13;;;17.77;88.96
11212;BME280;5663;50.864;12.096;2022-10-16T07:24:01;99350.28;;;17.84;88.90
11212;BME280;5663;50.864;12.096;2022-10-16T07:26:31;99346.19;;;17.91;89.07
11212;BME280;5663;50.864;12.096;2022-10-16T07:28:59;99330.28;;;17.92;88.90
11212;BME280;5663;50.864;12.096;2022-10-16T07:31:28;99361.94;;;18.02;88.72
11212;BME280;5663;50.864;12.096;2022-10-16T07:33:58;99358.22;;;18.05;88.53
11212;BME280;5663;50.864;12.096;2022-10-16T07:36:27;99357.13;;;18.07;88.42
11212;BME280;5663;50.864;12.096;2022-10-16T07:38:55;99367.28;;;18.12;88.10
11212;BME280;5663;50.864;12.096;2022-10-16T07:41:23;99378.41;;;18.15;87.88
11212;BME280;5663;50.864;12.096;2022-10-16T07:43:52;99372.88;;;18.18;87.83
11212;BME280;5663;50.864;12.096;2022-10-16T07:46:22;99363.09;;;18.09;87.64
11212;BME280;5663;50.864;12.096;2022-10-16T07:48:50;99349.94;;;18.09;87.33
11212;BME280;5663;50.864;12.096;2022-10-16T07:51:19;99371.25;;;18.27;87.17
11212;BME280;5663;50.864;12.096;2022-10-16T07:53:49;99375.44;;;18.30;87.03
11212;BME280;5663;50.864;12.096;2022-10-16T07:56:19;99369.94;;;18.33;87.10
11212;BME280;5663;50.864;12.096;2022-10-16T07:58:48;99367.31;;;18.33;86.94
11212;BME280;5663;50.864;12.096;2022-10-16T08:01:17;99358.88;;;18.39;86.63
11212;BME280;5663;50.864;12.096;2022-10-16T08:03:46;99369.88;;;18.44;86.53
11212;BME280;5663;50.864;12.096;2022-10-16T08:06:16;99371.31;;;18.48;86.57
11212;BME280;5663;50.864;12.096;2022-10-16T08:08:45;99377.00;;;18.53;86.70
11212;BME280;5663;50.864;12.096;2022-10-16T08:11:17;99369.53;;;18.58;86.60
11212;BME280;5663;50.864;12.096;2022-10-16T08:13:44;99370.13;;;18.62;86.31
11212;BME280;5663;50.864;12.096;2022-10-16T08:16:13;99370.72;;;18.65;86.08
11212;BME280;5663;50.864;12.096;2022-10-16T08:18:42;99375.72;;;18.68;85.93
11212;BME280;5663;50.864;12.096;2022-10-16T08:21:13;99383.53;;;18.70;85.84
11212;BME280;5663;50.864;12.096;2022-10-16T08:23:42;99384.34;;;18.70;85.71
11212;BME280;5663;50.864;12.096;2022-10-16T08:26:11;99378.13;;;18.72;85.65
11212;BME280;5663;50.864;12.096;2022-10-16T08:28:41;99380.38;;;18.76;85.79
11212;BME280;5663;50.864;12.096;2022-10-16T08:31:11;99330.81;;;18.49;85.79
11212;BME280;5663;50.864;12.096;2022-10-16T08:33:42;99380.66;;;18.83;85.92
11212;BME280;5663;50.864;12.096;2022-10-16T08:36:11;99392.13;;;18.93;85.88
11212;BME280;5663;50.864;12.096;2022-10-16T08:38:39;99382.59;;;19.02;85.87
11212;BME280;5663;50.864;12.096;2022-10-16T08:47:02;99404.34;;;19.25;85.03
11212;BME280;5663;50.864;12.096;2022-10-16T08:49:38;99413.41;;;19.32;84.54
11212;BME280;5663;50.864;12.096;2022-10-16T08:52:12;99389.66;;;19.32;84.36
11212;BME280;5663;50.864;12.096;2022-10-16T08:54:43;99406.78;;;19.47;84.28
11212;BME280;5663;50.864;12.096;2022-10-16T08:57:15;99405.41;;;19.53;83.83
11212;BME280;5663;50.864;12.096;2022-10-16T08:59:49;99411.09;;;19.58;83.92
11212;BME280;5663;50.864;12.096;2022-10-16T09:02:28;99386.63;;;19.46;83.88
11212;BME280;5663;50.864;12.096;2022-10-16T09:05:23;99424.38;;;19.67;83.97
11212;BME280;5663;50.864;12.096;2022-10-16T09:08:03;99426.47;;;19.74;83.35
11212;BME280;5663;50.864;12.096;2022-10-16T09:10:41;99433.03;;;19.79;83.08
11212;BME280;5663;50.864;12.096;2022-10-16T09:13:19;99432.34;;;19.87;82.77
11212;BME280;5663;50.864;12.096;2022-10-16T09:16:01;99444.00;;;19.94;82.16
11212;BME280;5663;50.864;12.096;2022-10-16T09:18:41;99447.09;;;19.99;81.19
11212;BME280;5663;50.864;12.096;2022-10-16T09:21:17;99450.97;;;20.05;81.35
11212;BME280;5663;50.864;12.096;2022-10-16T09:23:47;99450.44;;;20.11;81.80
11212;BME280;5663;50.864;12.096;2022-10-16T09:26:17;99449.06;;;20.16;81.53
11212;BME280;5663;50.864;12.096;2022-10-16T09:28:52;99426.81;;;20.09;81.05
11212;BME280;5663;50.864;12.096;2022-10-16T09:31:22;99454.34;;;20.26;81.04
11212;BME280;5663;50.864;12.096;2022-10-16T09:33:53;99454.91;;;20.30;80.58
11212;BME280;5663;50.864;12.096;2022-10-16T09:36:27;99461.56;;;20.34;80.29
11212;BME280;5663;50.864;12.096;2022-10-16T09:39:03;99464.66;;;20.39;80.40
11212;BME280;5663;50.864;12.096;2022-10-16T09:41:34;99459.91;;;20.42;79.25
11212;BME280;5663;50.864;12.096;2022-10-16T09:44:05;99462.16;;;20.47;79.45
11212;BME280;5663;50.864;12.096;2022-10-16T09:46:44;99444.91;;;20.43;79.28
11212;BME280;5663;50.864;12.096;2022-10-16T09:49:22;99464.81;;;20.57;78.08
11212;BME280;5663;50.864;12.096;2022-10-16T09:51:51;99470.94;;;20.67;78.09
11212;BME280;5663;50.864;12.096;2022-10-16T09:54:31;99477.88;;;20.78;78.26
11212;BME280;5663;50.864;12.096;2022-10-16T09:57:10;99482.44;;;20.85;78.06
11212;BME280;5663;50.864;12.096;2022-10-16T09:59:49;99464.09;;;20.84;77.78
11212;BME280;5663;50.864;12.096;2022-10-16T10:02:30;99476.03;;;20.98;77.69
11212;BME280;5663;50.864;12.096;2022-10-16T10:05:04;99477.69;;;21.08;78.18
11212;BME280;5663;50.864;12.096;2022-10-16T10:07:43;99483.94;;;21.17;78.18
11212;BME280;5663;50.864;12.096;2022-10-16T10:10:22;99478.34;;;21.20;76.70
11212;BME280;5663;50.864;12.096;2022-10-16T10:12:52;99467.94;;;21.19;76.73
11212;BME280;5663;50.864;12.096;2022-10-16T10:15:22;99484.31;;;21.32;76.31
11212;BME280;5663;50.864;12.096;2022-10-16T10:17:55;99489.59;;;21.32;75.32
11212;BME280;5663;50.864;12.096;2022-10-16T10:20:28;99487.53;;;21.35;75.52
11212;BME280;5663;50.864;12.096;2022-10-16T10:23:01;99480.16;;;21.39;74.63
11212;BME280;5663;50.864;12.096;2022-10-16T10:25:37;99477.34;;;21.40;73.67
11212;BME280;5663;50.864;12.096;2022-10-16T10:28:18;99484.03;;;21.45;73.99
11212;BME280;5663;50.864;12.096;2022-10-16T10:30:56;99487.06;;;21.50;74.49
11212;BME280;5663;50.864;12.096;2022-10-16T10:33:34;99486.94;;;21.51;74.54
11212;BME280;5663;50.864;12.096;2022-10-16T10:36:16;99493.59;;;21.55;74.40
11212;BME280;5663;50.864;12.096;2022-10-16T10:38:50;99487.59;;;21.53;73.39
11212;BME280;5663;50.864;12.096;2022-10-16T10:44:21;99495.25;;;21.56;72.64
11212;BME280;5663;50.864;12.096;2022-10-16T10:46:57;99488.69;;;21.60;72.45
11212;BME280;5663;50.864;12.096;2022-10-16T10:49:45;99492.28;;;21.69;72.13
11212;BME280;5663;50.864;12.096;2022-10-16T10:52:33;99494.19;;;21.77;72.10
11212;BME280;5663;50.864;12.096;2022-10-16T10:55:14;99493.63;;;21.83;71.92
11212;BME280;5663;50.864;12.096;2022-10-16T10:57:54;99487.72;;;21.89;72.69
11212;BME280;5663;50.864;12.096;2022-10-16T11:00:35;99482.69;;;21.96;72.41
11212;BME280;5663;50.864;12.096;2022-10-16T11:03:18;99487.22;;;22.03;73.30
11212;BME280;5663;50.864;12.096;2022-10-16T11:05:56;99489.28;;;22.09;72.92
11212;BME280;5663;50.864;12.096;2022-10-16T11:08:29;99483.25;;;22.17;72.48
11212;BME280;5663;50.864;12.096;2022-10-16T11:11:02;99479.19;;;22.23;72.79
11212;BME280;5663;50.864;12.096;2022-10-16T11:13:34;99487.53;;;22.28;72.63
11212;BME280;5663;50.864;12.096;2022-10-16T11:16:10;99485.25;;;22.33;70.65
11212;BME280;5663;50.864;12.096;2022-10-16T11:18:46;99488.28;;;22.38;70.14
11212;BME280;5663;50.864;12.096;2022-10-16T11:21:19;99475.34;;;22.35;70.24
11212;BME280;5663;50.864;12.096;2022-10-16T11:23:53;99489.34;;;22.45;69.18
11212;BME280;5663;50.864;12.096;2022-10-16T11:26:26;99490.69;;;22.49;69.12
11212;BME280;5663;50.864;12.096;2022-10-16T11:28:56;99495.41;;;22.55;69.07
11212;BME280;5663;50.864;12.096;2022-10-16T11:31:29;99494.78;;;22.61;68.37
11212;BME280;5663;50.864;12.096;2022-10-16T11:34:04;99491.69;;;22.66;68.36
11212;BME280;5663;50.864;12.096;2022-10-16T11:36:39;99501.84;;;22.71;67.13
11212;BME280;5663;50.864;12.096;2022-10-16T11:39:19;99509.81;;;22.71;67.55
11212;BME280;5663;50.864;12.096;2022-10-16T11:41:51;99513.13;;;22.73;67.75
11212;BME280;5663;50.864;12.096;2022-10-16T11:44:44;99515.09;;;22.71;68.00
11212;BME280;5663;50.864;12.096;2022-10-16T11:47:43;99508.44;;;22.67;68.74
11212;BME280;5663;50.864;12.096;2022-10-16T11:50:22;99517.59;;;22.72;68.95
11212;BME280;5663;50.864;12.096;2022-10-16T11:53:03;99518.72;;;22.70;68.70
11212;BME280;5663;50.864;12.096;2022-10-16T11:55:38;99523.19;;;22.69;69.25
11212;BME280;5663;50.864;12.096;2022-10-16T11:58:13;99525.00;;;22.69;68.77
11212;BME280;5663;50.864;12.096;2022-10-16T12:00:46;99502.53;;;22.55;68.59
11212;BME280;5663;50.864;12.096;2022-10-16T12:03:22;99520.72;;;22.68;68.58
11212;BME280;5663;50.864;12.096;2022-10-16T12:06:04;99519.72;;;22.69;68.99
11212;BME280;5663;50.864;12.096;2022-10-16T12:08:40;99484.31;;;22.42;68.80
11212;BME280;5663;50.864;12.096;2022-10-16T12:11:23;99521.84;;;22.65;68.05
11212;BME280;5663;50.864;12.096;2022-10-16T12:14:04;99527.13;;;22.65;68.90
11212;BME280;5663;50.864;12.096;2022-10-16T12:16:37;99524.66;;;22.63;67.76
11212;BME280;5663;50.864;12.096;2022-10-16T12:19:12;99523.81;;;22.63;67.96
11212;BME280;5663;50.864;12.096;2022-10-16T12:21:41;99528.97;;;22.65;68.12
11212;BME280;5663;50.864;12.096;2022-10-16T12:24:26;99535.50;;;22.70;68.44
11212;BME280;5663;50.864;12.096;2022-10-16T12:26:55;99540.47;;;22.73;67.85
11212;BME280;5663;50.864;12.096;2022-10-16T12:29:32;99537.69;;;22.75;66.41
11212;BME280;5663;50.864;12.096;2022-10-16T12:32:02;99541.81;;;22.77;67.60
11212;BME280;5663;50.864;12.096;2022-10-16T12:34:38;99545.72;;;22.83;67.15
11212;BME280;5663;50.864;12.096;2022-10-16T12:37:13;99540.94;;;22.86;66.80
11212;BME280;5663;50.864;12.096;2022-10-16T12:39:50;99543.69;;;22.95;66.85
11212;BME280;5663;50.864;12.096;2022-10-16T12:42:31;99548.38;;;23.01;66.79
11212;BME280;5663;50.864;12.096;2022-10-16T12:45:01;99543.59;;;23.04;66.38
11212;BME280;5663;50.864;12.096;2022-10-16T12:47:46;99525.47;;;23.00;66.68
11212;BME280;5663;50.864;12.096;2022-10-16T12:50:33;99533.34;;;23.09;65.91
11212;BME280;5663;50.864;12.096;2022-10-16T12:53:16;99535.69;;;23.13;66.59
11212;BME280;5663;50.864;12.096;2022-10-16T12:55:52;99536.38;;;23.15;66.28
11212;BME280;5663;50.864;12.096;2022-10-16T13:01:37;99527.72;;;23.13;65.62
11212;BME280;5663;50.864;12.096;2022-10-16T13:04:25;99537.41;;;23.22;65.80
11212;BME280;5663;50.864;12.096;2022-10-16T13:07:11;99539.09;;;23.23;64.60
11212;BME280;5663;50.864;12.096;2022-10-16T13:09:52;99536.44;;;23.23;64.91
11212;BME280;5663;50.864;12.096;2022-10-16T13:12:39;99548.03;;;23.22;64.86
11212;BME280;5663;50.864;12.096;2022-10-16T13:15:23;99542.03;;;23.20;64.62
11212;BME280;5663;50.864;12.096;2022-10-16T13:18:06;99535.91;;;23.19;64.94
11212;BME280;5663;50.864;12.096;2022-10-16T13:20:56;99546.00;;;23.16;64.16
11212;BME280;5663;50.864;12.096;2022-10-16T13:23:34;99541.28;;;23.09;64.01
11212;BME280;5663;50.864;12.096;2022-10-16T13:26:15;99550.25;;;23.08;64.08
11212;BME280;5663;50.864;12.096;2022-10-16T13:28:50;99546.94;;;23.06;64.55
11212;BME280;5663;50.864;12.096;2022-10-16T13:31:20;99545.13;;;23.07;64.92
11212;BME280;5663;50.864;12.096;2022-10-16T13:33:53;99546.41;;;23.03;65.10
11212;BME280;5663;50.864;12.096;2022-10-16T13:36:23;99532.38;;;22.93;64.63
11212;BME280;5663;50.864;12.096;2022-10-16T13:39:01;99538.69;;;22.92;64.45
11212;BME280;5663;50.864;12.096;2022-10-16T13:41:33;99539.78;;;22.89;64.65